Time;durP1;ratioP1;P1;durP2;ratioP2;P2;SDS_P1;SDS_P2;PMS_P1;PMS_P2;Temp;Humidity;BMP_temperature;BMP_pressure;BME280_temperature;BME280_humidity;BME280_pressure;Samples;Min_cycle;Max_cycle;Signal;HPM_P1;HPM_P2
2021/10/07 00:01:52;;;;;;;18.92;11.52;;;333.50;2329.60;;;;;;5115353;28;20034;-64
2021/10/07 00:04:18;;;;;;;17.60;11.40;;;333.60;2329.60;;;;;;5115696;28;20055;-65
2021/10/07 00:06:43;;;;;;;23.05;12.57;;;333.60;2329.60;;;;;;5115481;28;20489;-63
2021/10/07 00:09:09;;;;;;;21.88;11.20;;;333.50;2329.60;;;;;;5115408;28;20031;-63
2021/10/07 00:11:36;;;;;;;26.17;12.15;;;333.50;2329.60;;;;;;5115471;28;20016;-64
2021/10/07 00:14:03;;;;;;;20.50;11.98;;;333.50;2329.60;;;;;;5115712;28;20380;-64
2021/10/07 00:16:29;;;;;;;19.88;12.43;;;333.60;2329.60;;;;;;5115113;28;20034;-64
2021/10/07 00:18:55;;;;;;;23.38;12.07;;;333.60;2329.60;;;;;;5115282;28;20377;-63
2021/10/07 00:21:21;;;;;;;23.58;12.60;;;333.60;2329.60;;;;;;5113354;28;20027;-64
2021/10/07 00:26:29;;;;;;;20.08;11.88;;;333.50;2329.60;;;;;;5115383;28;20023;-64
2021/10/07 00:29:00;;;;;;;21.90;12.57;;;333.50;2329.60;;;;;;5115031;28;20024;-63
2021/10/07 00:31:30;;;;;;;25.30;12.65;;;333.60;2329.60;;;;;;5115048;28;20034;-63
2021/10/07 00:34:12;;;;;;;26.77;12.48;;;333.60;2329.60;;;;;;5115071;28;20035;-63
2021/10/07 00:37:03;;;;;;;20.98;12.48;;;333.60;2329.60;;;;;;5115089;28;20024;-63
2021/10/07 00:39:24;;;;;;;23.85;11.68;;;333.60;2329.60;;;;;;5114524;28;20044;-66
2021/10/07 00:41:51;;;;;;;24.17;11.93;;;333.60;2329.60;;;;;;5114905;27;20023;-63
2021/10/07 00:44:17;;;;;;;21.58;12.30;;;333.60;2329.60;;;;;;5114816;28;20028;-65
2021/10/07 00:46:54;;;;;;;22.33;11.35;;;333.60;2329.60;;;;;;5114684;28;20099;-63
2021/10/07 00:49:22;;;;;;;23.42;11.77;;;333.60;2329.60;;;;;;5114947;28;20047;-69
2021/10/07 00:51:49;;;;;;;20.83;10.85;;;333.60;2329.60;;;;;;5114528;28;20099;-63
2021/10/07 00:54:18;;;;;;;20.38;11.13;;;333.70;2329.60;;;;;;5114853;28;20028;-65
2021/10/07 00:56:44;;;;;;;21.95;11.40;;;333.60;2329.60;;;;;;5114681;28;20372;-64
2021/10/07 00:59:11;;;;;;;17.92;11.32;;;333.70;2329.60;;;;;;5114593;28;20028;-65
2021/10/07 01:01:37;;;;;;;21.27;10.85;;;333.60;2329.60;;;;;;5114473;28;20389;-65
2021/10/07 01:04:03;;;;;;;19.08;10.45;;;333.60;2329.60;;;;;;5114458;28;20020;-63
2021/10/07 01:06:29;;;;;;;19.60;10.82;;;333.60;2329.60;;;;;;5114302;28;20023;-63
2021/10/07 01:08:55;;;;;;;18.65;11.20;;;333.60;2329.60;;;;;;5114224;28;20019;-63
2021/10/07 01:11:21;;;;;;;20.05;10.98;;;333.60;2329.60;;;;;;5114453;28;20027;-64
2021/10/07 01:13:47;;;;;;;21.80;12.45;;;333.50;2329.60;;;;;;5114228;28;20073;-63
2021/10/07 01:16:16;;;;;;;22.17;10.82;;;333.60;2329.60;;;;;;5114151;28;20028;-64
2021/10/07 01:18:42;;;;;;;20.73;10.88;;;333.50;2329.60;;;;;;5112577;28;20502;-64
2021/10/07 01:21:11;;;;;;;20.48;11.07;;;333.50;2329.60;;;;;;5113778;28;20504;-64
2021/10/07 01:23:41;;;;;;;18.85;10.73;;;333.40;2329.60;;;;;;5113865;28;20027;-66
2021/10/07 01:26:08;;;;;;;20.67;11.02;;;333.40;2329.60;;;;;;5114013;28;20032;-63
2021/10/07 01:28:36;;;;;;;20.58;10.82;;;333.40;2329.60;;;;;;5114411;28;20028;-63
2021/10/07 01:31:03;;;;;;;16.63;10.50;;;333.40;2329.60;;;;;;5113315;28;20024;-64
2021/10/07 01:33:29;;;;;;;18.38;10.55;;;333.50;2329.60;;;;;;5114202;28;20465;-63
2021/10/07 01:35:55;;;;;;;18.63;10.43;;;333.50;2329.60;;;;;;5113964;28;20034;-63
2021/10/07 01:38:20;;;;;;;21.73;9.65;;;333.40;2329.60;;;;;;5114129;28;20102;-65
2021/10/07 01:40:46;;;;;;;18.67;10.05;;;333.40;2329.60;;;;;;5114119;28;20039;-63
2021/10/07 01:43:12;;;;;;;20.80;9.52;;;333.40;2329.60;;;;;;5114006;28;20427;-65
2021/10/07 01:45:37;;;;;;;16.90;9.57;;;333.40;2329.60;;;;;;5117778;28;20027;-63
2021/10/07 01:48:04;;;;;;;19.73;9.60;;;333.40;2329.60;;;;;;5118434;27;20035;-63
2021/10/07 01:50:30;;;;;;;16.73;9.25;;;333.40;2329.60;;;;;;5118327;28;20027;-64
2021/10/07 01:52:56;;;;;;;17.80;9.60;;;333.40;2329.60;;;;;;5117644;28;20053;-66
2021/10/07 01:55:22;;;;;;;17.10;8.88;;;333.40;2329.60;;;;;;5118109;28;20039;-66
2021/10/07 01:57:47;;;;;;;14.50;9.10;;;333.40;2329.60;;;;;;5118248;28;20023;-64
2021/10/07 02:00:14;;;;;;;14.70;8.45;;;333.40;2329.60;;;;;;5117925;28;20047;-66
2021/10/07 02:02:40;;;;;;;17.20;8.52;;;333.40;2329.60;;;;;;5118253;28;20034;-66
2021/10/07 02:05:07;;;;;;;15.65;8.30;;;333.30;2329.60;;;;;;5118041;28;20023;-66
2021/10/07 02:07:33;;;;;;;17.92;8.32;;;333.40;2329.60;;;;;;5117783;28;20035;-67
2021/10/07 02:09:59;;;;;;;18.00;8.77;;;333.40;2329.60;;;;;;5117978;28;20495;-65
2021/10/07 02:12:24;;;;;;;19.00;8.73;;;333.40;2329.60;;;;;;5117691;28;20024;-66
2021/10/07 02:14:50;;;;;;;16.48;8.60;;;333.40;2329.60;;;;;;5117686;28;20126;-65
2021/10/07 02:17:16;;;;;;;14.32;8.40;;;333.40;2329.60;;;;;;5117532;28;20024;-65
2021/10/07 02:19:41;;;;;;;15.18;8.27;;;333.30;2329.60;;;;;;5117578;28;20031;-67
2021/10/07 02:22:07;;;;;;;13.85;7.97;;;333.30;2329.60;;;;;;5116035;28;20028;-67
2021/10/07 02:24:33;;;;;;;15.93;8.18;;;333.40;2329.60;;;;;;5117733;28;20024;-66
2021/10/07 02:26:59;;;;;;;16.95;7.75;;;333.40;2329.60;;;;;;5117483;28;20024;-67
2021/10/07 02:29:25;;;;;;;16.35;7.47;;;333.30;2329.60;;;;;;5117447;28;20433;-66
2021/10/07 02:31:51;;;;;;;12.30;7.43;;;333.30;2329.60;;;;;;5117265;28;20020;-66
2021/10/07 02:34:16;;;;;;;15.27;7.93;;;333.30;2329.60;;;;;;5115809;28;20039;-64
2021/10/07 02:36:42;;;;;;;13.43;7.43;;;333.30;2329.60;;;;;;5117423;28;20473;-64
2021/10/07 02:39:08;;;;;;;14.43;7.20;;;333.30;2329.60;;;;;;5116561;28;20114;-64
2021/10/07 02:41:33;;;;;;;16.77;7.32;;;333.20;2329.60;;;;;;5117312;28;20030;-64
2021/10/07 02:43:59;;;;;;;13.02;7.78;;;333.30;2329.60;;;;;;5117246;28;20031;-66
2021/10/07 02:46:25;;;;;;;14.48;7.70;;;333.30;2329.60;;;;;;5117199;28;20051;-65
2021/10/07 02:48:50;;;;;;;14.07;6.70;;;333.30;2329.60;;;;;;5115856;28;20146;-67
2021/10/07 02:51:16;;;;;;;15.70;7.63;;;333.30;2329.60;;;;;;5116981;28;20031;-68
2021/10/07 02:53:42;;;;;;;13.82;7.78;;;333.30;2329.60;;;;;;5117051;28;20031;-67
2021/10/07 02:56:08;;;;;;;14.73;7.18;;;333.20;2329.60;;;;;;5115610;28;20031;-65
2021/10/07 02:58:34;;;;;;;11.70;6.97;;;333.20;2329.60;;;;;;5116239;28;20027;-66
2021/10/07 03:01:00;;;;;;;12.70;6.60;;;333.20;2329.60;;;;;;5116582;28;20027;-66
2021/10/07 03:03:26;;;;;;;15.05;7.32;;;333.30;2329.60;;;;;;5116675;28;20108;-66
2021/10/07 03:05:52;;;;;;;14.68;6.90;;;333.20;2329.60;;;;;;5116807;28;20051;-66
2021/10/07 03:08:18;;;;;;;14.57;7.70;;;333.20;2329.60;;;;;;5116575;28;20366;-65
2021/10/07 03:10:43;;;;;;;14.10;7.70;;;333.20;2329.60;;;;;;5116704;28;20342;-65
2021/10/07 03:13:09;;;;;;;15.75;7.57;;;333.20;2329.60;;;;;;5116661;28;20136;-66
2021/10/07 03:15:35;;;;;;;13.25;7.40;;;333.20;2329.60;;;;;;5115756;28;20040;-64
2021/10/07 03:18:01;;;;;;;14.55;7.45;;;333.20;2329.60;;;;;;5116404;28;20077;-66
2021/10/07 03:20:27;;;;;;;14.32;7.50;;;333.20;2329.60;;;;;;5116782;28;20028;-64
2021/10/07 03:22:53;;;;;;;13.90;7.32;;;333.20;2329.60;;;;;;5116308;28;20526;-67
2021/10/07 03:25:18;;;;;;;18.35;7.28;;;333.20;2329.60;;;;;;5116709;28;20034;-66
2021/10/07 03:27:44;;;;;;;15.88;7.78;;;333.20;2329.60;;;;;;5115907;28;20491;-65
2021/10/07 03:30:10;;;;;;;19.13;7.70;;;333.10;2329.60;;;;;;5116394;28;20027;-65
2021/10/07 03:32:36;;;;;;;12.82;7.90;;;333.20;2329.60;;;;;;5115840;28;20365;-64
2021/10/07 03:35:02;;;;;;;17.48;8.07;;;333.20;2329.60;;;;;;5114325;28;20043;-66
2021/10/07 03:37:27;;;;;;;16.67;8.70;;;333.20;2329.60;;;;;;5114946;28;20030;-67
2021/10/07 03:39:53;;;;;;;15.40;9.10;;;333.20;2329.60;;;;;;5116489;28;20051;-66
2021/10/07 03:42:19;;;;;;;14.70;8.90;;;333.20;2329.60;;;;;;5115985;28;20032;-67
2021/10/07 03:44:44;;;;;;;16.67;9.35;;;333.20;2329.60;;;;;;5116279;27;20385;-66
2021/10/07 03:47:10;;;;;;;18.60;8.77;;;333.30;2329.60;;;;;;5116167;28;20487;-67
2021/10/07 03:49:36;;;;;;;17.63;8.95;;;333.20;2329.60;;;;;;5115923;28;20115;-66
2021/10/07 03:52:02;;;;;;;18.33;8.95;;;333.20;2329.60;;;;;;5115602;28;20024;-68
2021/10/07 03:54:28;;;;;;;18.73;8.80;;;333.30;2329.60;;;;;;5113692;28;20039;-67
2021/10/07 03:56:54;;;;;;;19.27;8.82;;;333.20;2329.60;;;;;;5115980;28;20016;-67
2021/10/07 03:59:20;;;;;;;18.73;9.10;;;333.30;2329.60;;;;;;5115770;28;20027;-66
2021/10/07 04:01:45;;;;;;;18.85;8.93;;;333.20;2329.60;;;;;;5115686;28;20522;-65
2021/10/07 04:04:11;;;;;;;17.27;8.80;;;333.20;2329.60;;;;;;5115667;28;20024;-66
2021/10/07 04:06:37;;;;;;;15.55;8.98;;;333.30;2329.60;;;;;;5114776;28;20046;-67
2021/10/07 04:09:03;;;;;;;12.05;8.00;;;333.30;2329.60;;;;;;5115356;28;20020;-65
2021/10/07 04:11:28;;;;;;;19.23;8.75;;;333.40;2329.60;;;;;;5115700;28;20103;-66
2021/10/07 04:13:54;;;;;;;15.25;8.48;;;333.30;2329.60;;;;;;5115461;28;20103;-66
2021/10/07 04:16:20;;;;;;;13.27;8.35;;;333.30;2329.60;;;;;;5115451;28;20028;-67
2021/10/07 04:18:45;;;;;;;16.38;9.02;;;333.30;2329.60;;;;;;5115193;28;20062;-67
2021/10/07 04:21:12;;;;;;;21.63;9.27;;;333.30;2329.60;;;;;;5115175;28;20389;-66
2021/10/07 04:23:38;;;;;;;18.08;8.80;;;333.30;2329.60;;;;;;5115284;27;20031;-67
2021/10/07 04:26:06;;;;;;;16.17;8.48;;;333.30;2329.60;;;;;;5115210;28;20024;-67
2021/10/07 04:28:34;;;;;;;16.80;8.50;;;333.30;2329.60;;;;;;5115210;28;20044;-67
2021/10/07 04:30:59;;;;;;;17.80;8.52;;;333.30;2329.60;;;;;;5113814;28;20380;-65
2021/10/07 04:33:25;;;;;;;16.98;8.48;;;333.40;2329.60;;;;;;5115270;28;20023;-67
2021/10/07 04:35:50;;;;;;;18.33;8.70;;;333.30;2329.60;;;;;;5113808;28;20101;-68
2021/10/07 04:38:16;;;;;;;16.17;9.60;;;333.30;2329.60;;;;;;5114894;28;20024;-67
2021/10/07 04:40:42;;;;;;;14.98;8.60;;;333.40;2329.60;;;;;;5115145;28;20080;-68
2021/10/07 04:43:08;;;;;;;15.32;8.95;;;333.40;2329.60;;;;;;5114754;28;20024;-68
2021/10/07 04:45:33;;;;;;;15.68;9.55;;;333.40;2329.60;;;;;;5113079;28;20031;-67
2021/10/07 04:47:59;;;;;;;16.15;7.95;;;333.40;2329.60;;;;;;5114314;28;20048;-68
2021/10/07 04:50:25;;;;;;;17.55;9.05;;;333.40;2329.60;;;;;;5114742;28;20024;-67
2021/10/07 04:52:51;;;;;;;16.48;8.90;;;333.40;2329.60;;;;;;5114516;28;20412;-67
2021/10/07 04:55:16;;;;;;;16.88;9.38;;;333.30;2329.60;;;;;;5114406;28;20074;-66
2021/10/07 04:57:42;;;;;;;16.77;9.50;;;333.30;2329.60;;;;;;5113757;28;20019;-67
2021/10/07 05:00:09;;;;;;;15.40;8.45;;;333.40;2329.60;;;;;;5114135;28;20465;-65
2021/10/07 05:02:36;;;;;;;12.90;7.82;;;333.40;2329.60;;;;;;5114530;28;20031;-67
2021/10/07 05:05:04;;;;;;;15.23;7.55;;;333.40;2329.60;;;;;;5114183;28;20028;-67
2021/10/07 05:07:29;;;;;;;13.68;8.07;;;333.30;2329.60;;;;;;5113543;28;20036;-67
2021/10/07 05:09:55;;;;;;;13.32;7.63;;;333.40;2329.60;;;;;;5114269;28;20038;-67
2021/10/07 05:12:21;;;;;;;11.98;6.93;;;333.40;2329.60;;;;;;5109634;28;20031;-67
2021/10/07 05:14:46;;;;;;;12.05;7.13;;;333.40;2329.60;;;;;;5091578;28;20118;-64
2021/10/07 05:17:12;;;;;;;12.55;7.03;;;333.30;2329.60;;;;;;5091838;28;20059;-67
2021/10/07 05:19:38;;;;;;;12.57;7.05;;;333.40;2329.60;;;;;;5090365;28;20028;-65
2021/10/07 05:22:04;;;;;;;13.13;6.80;;;333.40;2329.60;;;;;;5104999;28;20047;-67
2021/10/07 05:24:30;;;;;;;9.85;6.40;;;333.40;2329.60;;;;;;5112005;28;20019;-63
2021/10/07 05:26:56;;;;;;;11.13;6.13;;;333.40;2329.60;;;;;;5112341;28;20061;-66
2021/10/07 05:29:22;;;;;;;10.48;6.40;;;333.40;2329.60;;;;;;5112421;28;20073;-66
2021/10/07 05:31:49;;;;;;;16.52;6.80;;;333.50;2329.60;;;;;;5111264;28;20585;-64
2021/10/07 05:34:15;;;;;;;12.70;7.07;;;333.50;2329.60;;;;;;5112215;28;20042;-65
2021/10/07 05:36:41;;;;;;;11.20;6.90;;;333.50;2329.60;;;;;;5111402;28;20097;-63
2021/10/07 05:39:07;;;;;;;13.85;6.70;;;333.60;2329.60;;;;;;5112695;28;20024;-64
2021/10/07 05:41:33;;;;;;;10.20;5.80;;;333.60;2329.60;;;;;;5111390;28;20088;-63
2021/10/07 05:43:59;;;;;;;13.13;6.18;;;333.60;2329.60;;;;;;5112683;28;20111;-63
2021/10/07 05:46:24;;;;;;;10.75;6.40;;;333.60;2329.60;;;;;;5112243;28;20076;-63
2021/10/07 05:48:50;;;;;;;11.93;5.93;;;333.60;2329.60;;;;;;5111433;28;20043;-63
2021/10/07 05:51:16;;;;;;;13.38;6.28;;;333.60;2329.60;;;;;;5111704;28;20034;-64
2021/10/07 05:53:41;;;;;;;13.73;5.80;;;333.70;2329.60;;;;;;5111224;28;20036;-64
2021/10/07 05:56:07;;;;;;;8.73;5.97;;;333.70;2329.60;;;;;;5112084;28;20111;-63
2021/10/07 05:58:33;;;;;;;14.60;5.68;;;333.70;2329.60;;;;;;5111194;28;20031;-63
2021/10/07 06:00:59;;;;;;;10.57;5.50;;;333.70;2329.60;;;;;;5112382;28;20047;-63
2021/10/07 06:03:25;;;;;;;9.90;5.65;;;333.70;2329.60;;;;;;5111962;28;20079;-63
2021/10/07 06:05:50;;;;;;;14.30;5.32;;;358.40;2329.60;;;;;;5111150;28;20365;-63
2021/10/07 06:08:16;;;;;;;8.25;5.15;;;358.40;2329.60;;;;;;5111669;28;20083;-64
2021/10/07 06:10:42;;;;;;;9.00;5.25;;;358.40;2329.60;;;;;;5111109;28;20027;-63
2021/10/07 06:13:07;;;;;;;10.32;5.20;;;358.40;2329.60;;;;;;5111440;28;20040;-64
2021/10/07 06:15:33;;;;;;;13.00;5.28;;;358.40;2329.60;;;;;;5111046;28;20381;-64
2021/10/07 06:18:00;;;;;;;12.63;5.53;;;358.40;2329.60;;;;;;5112045;28;20036;-63
2021/10/07 06:22:54;;;;;;;11.85;5.40;;;358.40;2329.60;;;;;;5110947;28;20035;-62
2021/10/07 06:25:21;;;;;;;10.95;5.57;;;358.40;2329.60;;;;;;5110637;28;20469;-63
2021/10/07 06:27:49;;;;;;;12.07;5.57;;;358.40;2329.60;;;;;;5110899;28;20032;-63
2021/10/07 06:30:15;;;;;;;10.80;5.43;;;358.40;2329.60;;;;;;5113266;28;20020;-63
2021/10/07 06:32:43;;;;;;;9.98;5.22;;;358.40;2329.60;;;;;;5114660;28;20051;-63
2021/10/07 06:35:09;;;;;;;10.95;5.78;;;358.50;2329.60;;;;;;5115041;28;20119;-64
2021/10/07 06:37:35;;;;;;;13.82;5.40;;;358.50;2329.60;;;;;;5114464;28;20034;-63
2021/10/07 06:40:01;;;;;;;8.75;5.30;;;358.60;2329.60;;;;;;5114978;28;20103;-63
2021/10/07 06:42:27;;;;;;;12.18;6.25;;;358.60;2329.60;;;;;;5114987;28;20040;-64
2021/10/07 06:44:52;;;;;;;10.27;6.13;;;358.60;2329.60;;;;;;5114981;28;20028;-63
2021/10/07 06:47:18;;;;;;;11.27;6.38;;;358.60;2329.60;;;;;;5115269;28;20571;-63
2021/10/07 06:49:44;;;;;;;12.70;6.63;;;358.60;2329.60;;;;;;5114562;28;20032;-63
2021/10/07 06:52:09;;;;;;;12.10;6.07;;;358.60;2329.60;;;;;;5114917;28;20039;-63
2021/10/07 06:54:35;;;;;;;11.60;6.40;;;358.60;2329.60;;;;;;5113970;28;20039;-63
2021/10/07 06:57:01;;;;;;;9.40;5.93;;;358.60;2329.60;;;;;;5113443;28;20027;-63
2021/10/07 06:59:26;;;;;;;12.50;5.70;;;358.60;2329.60;;;;;;5115377;28;20027;-63
2021/10/07 07:01:52;;;;;;;10.15;5.90;;;358.60;2329.60;;;;;;5113814;28;20470;-63
2021/10/07 07:04:18;;;;;;;12.50;5.47;;;358.60;2329.60;;;;;;5114336;28;20027;-63
2021/10/07 07:06:45;;;;;;;10.48;5.72;;;358.60;2329.60;;;;;;5113744;28;20015;-63
2021/10/07 07:09:12;;;;;;;10.18;5.60;;;358.50;2329.60;;;;;;5114631;28;20043;-63
2021/10/07 07:11:38;;;;;;;10.82;5.68;;;358.50;2329.60;;;;;;5113919;28;20491;-63
2021/10/07 07:14:05;;;;;;;13.32;5.85;;;358.50;2329.60;;;;;;5114579;28;20040;-63
2021/10/07 07:16:32;;;;;;;9.80;6.05;;;358.60;2329.60;;;;;;5113717;28;20476;-63
2021/10/07 07:18:59;;;;;;;12.32;6.60;;;358.70;2329.60;;;;;;5113588;27;20039;-63
2021/10/07 07:21:29;;;;;;;9.88;6.18;;;358.70;2329.60;;;;;;5112932;28;20497;-63
2021/10/07 07:23:54;;;;;;;12.48;6.75;;;358.70;2329.60;;;;;;5114129;27;20044;-62
2021/10/07 07:26:21;;;;;;;11.18;6.22;;;358.70;2329.60;;;;;;5113987;28;20030;-62
2021/10/07 07:28:46;;;;;;;11.48;5.78;;;358.70;2329.60;;;;;;5113095;28;20457;-63
2021/10/07 07:31:12;;;;;;;12.35;6.38;;;358.70;2329.60;;;;;;5113740;28;20076;-62
2021/10/07 07:33:38;;;;;;;11.20;6.00;;;358.70;2329.60;;;;;;5113170;27;20066;-62
2021/10/07 07:36:03;;;;;;;12.15;6.85;;;358.70;2329.60;;;;;;5114407;28;20028;-63
2021/10/07 07:38:29;;;;;;;12.80;6.63;;;358.70;2329.60;;;;;;5113303;28;20039;-63
2021/10/07 07:40:57;;;;;;;12.40;6.90;;;358.70;2329.60;;;;;;5113907;28;20090;-62
2021/10/07 07:43:23;;;;;;;10.38;6.10;;;358.70;2329.60;;;;;;5113488;27;20094;-63
2021/10/07 07:45:50;;;;;;;10.75;5.78;;;358.70;2329.60;;;;;;5113455;28;20051;-63
2021/10/07 07:48:16;;;;;;;10.13;6.50;;;358.60;2329.60;;;;;;5113453;28;20043;-62
2021/10/07 07:50:42;;;;;;;9.48;5.80;;;358.60;2329.60;;;;;;5113079;28;20023;-63
2021/10/07 07:53:10;;;;;;;10.15;5.88;;;358.70;2329.60;;;;;;5111756;28;20028;-63
2021/10/07 07:55:36;;;;;;;11.90;6.30;;;358.70;2329.60;;;;;;5113243;28;20031;-62
2021/10/07 07:58:02;;;;;;;10.93;6.25;;;358.70;2329.60;;;;;;5113365;28;20035;-62
2021/10/07 08:00:28;;;;;;;13.13;6.53;;;358.70;2329.60;;;;;;5113714;28;20475;-62
2021/10/07 08:02:53;;;;;;;12.65;6.60;;;358.70;2329.60;;;;;;5112965;28;20055;-62
2021/10/07 08:05:19;;;;;;;12.48;6.72;;;358.70;2329.60;;;;;;5113865;28;20028;-63
2021/10/07 08:07:45;;;;;;;11.45;6.75;;;358.60;2329.60;;;;;;5112373;28;20052;-62
2021/10/07 08:10:12;;;;;;;9.75;6.50;;;358.60;2329.60;;;;;;5113439;28;20034;-63
2021/10/07 08:12:38;;;;;;;12.93;6.45;;;358.60;2329.60;;;;;;5112885;27;20039;-63
2021/10/07 08:15:06;;;;;;;13.63;6.50;;;358.60;2329.60;;;;;;5113812;28;20062;-62
2021/10/07 08:17:33;;;;;;;12.88;6.90;;;358.60;2329.60;;;;;;5112117;28;20047;-63
2021/10/07 08:19:59;;;;;;;11.73;6.38;;;358.60;2329.60;;;;;;5113466;28;20444;-63
2021/10/07 08:22:26;;;;;;;9.98;6.53;;;358.60;2329.60;;;;;;5112223;27;20032;-63
2021/10/07 08:24:53;;;;;;;12.85;6.55;;;358.60;2329.60;;;;;;5113110;28;20046;-62
2021/10/07 08:27:19;;;;;;;13.60;7.28;;;358.60;2329.60;;;;;;5113306;28;20043;-63
2021/10/07 08:29:46;;;;;;;11.63;6.90;;;358.60;2329.60;;;;;;5112100;28;20492;-62
2021/10/07 08:32:11;;;;;;;9.77;6.25;;;358.60;2329.60;;;;;;5112861;28;20038;-62
2021/10/07 08:34:37;;;;;;;12.40;5.93;;;358.60;2329.60;;;;;;5111140;28;20070;-63
2021/10/07 08:37:04;;;;;;;10.45;6.30;;;358.50;2329.60;;;;;;5113002;28;20055;-62
2021/10/07 08:39:30;;;;;;;10.60;6.65;;;358.50;2329.60;;;;;;5111569;28;20050;-63
2021/10/07 08:41:57;;;;;;;10.38;6.38;;;358.50;2329.60;;;;;;5113294;28;20364;-63
2021/10/07 08:44:23;;;;;;;11.80;6.20;;;358.50;2329.60;;;;;;5112917;28;20373;-62
2021/10/07 08:46:52;;;;;;;10.48;6.18;;;358.60;2329.60;;;;;;5110847;28;20015;-62
2021/10/07 08:49:20;;;;;;;10.55;6.07;;;358.60;2329.60;;;;;;5112580;28;20036;-62
2021/10/07 08:51:47;;;;;;;11.57;5.80;;;358.60;2329.60;;;;;;5111977;28;20051;-62
2021/10/07 08:54:13;;;;;;;8.75;5.72;;;358.60;2329.60;;;;;;5110707;28;20035;-63
2021/10/07 08:56:39;;;;;;;11.10;5.80;;;358.60;2329.60;;;;;;5111944;28;20034;-63
2021/10/07 08:59:06;;;;;;;11.95;5.70;;;358.60;2329.60;;;;;;5112323;28;20035;-62
2021/10/07 09:01:39;;;;;;;9.48;6.00;;;358.50;2329.60;;;;;;5112302;28;20030;-62
2021/10/07 09:04:26;;;;;;;12.32;6.07;;;358.60;2329.60;;;;;;5111594;28;20032;-62
2021/10/07 09:06:53;;;;;;;10.90;5.93;;;358.60;2329.60;;;;;;5111779;28;20096;-63
2021/10/07 09:09:19;;;;;;;9.05;5.85;;;358.60;2329.60;;;;;;5112268;28;20047;-63
2021/10/07 09:11:51;;;;;;;9.18;5.13;;;358.70;2329.60;;;;;;5111956;28;20031;-63
2021/10/07 09:14:18;;;;;;;10.68;5.72;;;358.70;2329.60;;;;;;5112079;28;20073;-63
2021/10/07 09:16:43;;;;;;;9.23;5.45;;;358.70;2329.60;;;;;;5111746;28;20552;-64
2021/10/07 09:19:18;;;;;;;10.15;6.05;;;358.70;2329.60;;;;;;5111303;28;20119;-63
2021/10/07 09:21:47;;;;;;;9.25;6.38;;;358.70;2329.60;;;;;;5111628;28;20061;-64
2021/10/07 09:24:32;;;;;;;12.63;5.85;;;358.70;2329.60;;;;;;5111979;28;20058;-63
2021/10/07 09:27:05;;;;;;;9.05;6.15;;;358.80;2329.60;;;;;;5111012;28;20023;-63
2021/10/07 09:29:34;;;;;;;8.45;5.15;;;358.80;2329.60;;;;;;5111641;28;20024;-62
2021/10/07 09:31:59;;;;;;;10.02;5.93;;;358.80;2329.60;;;;;;5111676;28;20073;-62
2021/10/07 09:34:37;;;;;;;9.75;5.90;;;358.80;2329.60;;;;;;5111474;28;20051;-63
2021/10/07 09:37:19;;;;;;;9.35;5.25;;;358.80;2329.60;;;;;;5112462;28;20024;-63
2021/10/07 09:39:52;;;;;;;8.40;5.43;;;358.80;2329.60;;;;;;5111109;28;20096;-63
2021/10/07 09:42:21;;;;;;;11.35;5.47;;;358.80;2329.60;;;;;;5112053;28;20410;-63
2021/10/07 09:45:00;;;;;;;12.25;6.03;;;358.80;2329.60;;;;;;5108885;28;20059;-63
2021/10/07 09:47:34;;;;;;;12.77;5.30;;;358.90;2329.60;;;;;;5109379;28;20027;-62
2021/10/07 09:50:31;;;;;;;12.20;5.40;;;358.90;2329.60;;;;;;5108314;28;20027;-64
2021/10/07 09:52:58;;;;;;;9.45;5.22;;;358.90;2329.60;;;;;;5102551;28;20031;-63
2021/10/07 09:55:34;;;;;;;13.00;5.05;;;358.90;2329.60;;;;;;5111804;28;20024;-62
2021/10/07 09:58:11;;;;;;;10.68;4.97;;;358.90;2329.60;;;;;;5109195;28;20008;-62
2021/10/07 10:00:40;;;;;;;12.40;5.80;;;359.00;2329.60;;;;;;5108301;28;20024;-63
2021/10/07 10:03:08;;;;;;;9.98;5.10;;;359.00;2329.60;;;;;;5111018;28;20028;-62
2021/10/07 10:05:36;;;;;;;10.20;5.53;;;359.10;2329.60;;;;;;5112201;28;20023;-63
2021/10/07 10:08:06;;;;;;;9.45;5.10;;;359.20;2329.60;;;;;;5114371;28;20040;-63
2021/10/07 10:10:33;;;;;;;8.20;5.70;;;359.20;2329.60;;;;;;5113436;28;20020;-63
2021/10/07 10:13:00;;;;;;;13.55;5.55;;;359.20;2329.60;;;;;;5113957;28;20055;-63
2021/10/07 10:15:26;;;;;;;9.10;5.10;;;359.30;2329.60;;;;;;5115892;28;20069;-62
2021/10/07 10:17:52;;;;;;;11.00;5.30;;;359.20;2329.60;;;;;;5114837;28;20047;-63
2021/10/07 10:20:25;;;;;;;8.93;5.10;;;359.20;2329.60;;;;;;5115157;28;20046;-63
2021/10/07 10:23:02;;;;;;;11.60;5.30;;;359.20;2329.60;;;;;;5111640;28;20036;-62
2021/10/07 10:25:31;;;;;;;12.25;5.15;;;359.30;2329.60;;;;;;5115013;28;20067;-63
2021/10/07 10:28:02;;;;;;;10.50;5.20;;;359.20;2329.60;;;;;;5114944;28;20049;-62
2021/10/07 10:30:32;;;;;;;9.88;5.20;;;359.30;2329.60;;;;;;5114466;28;20028;-63
2021/10/07 10:33:00;;;;;;;8.18;5.72;;;359.30;2329.60;;;;;;5114854;27;20024;-62
2021/10/07 10:35:33;;;;;;;13.32;5.53;;;384.00;2329.60;;;;;;5115323;28;20048;-62
2021/10/07 10:38:00;;;;;;;12.25;5.60;;;384.00;2329.60;;;;;;5114128;28;20114;-62
2021/10/07 10:40:26;;;;;;;10.88;5.53;;;384.10;2329.60;;;;;;5115453;28;20043;-61
2021/10/07 10:43:16;;;;;;;14.45;5.68;;;384.30;2329.60;;;;;;5114583;28;20023;-62
2021/10/07 10:46:08;;;;;;;19.23;8.23;;;384.20;2329.60;;;;;;5114524;28;20040;-61
2021/10/07 10:48:45;;;;;;;9.30;6.05;;;384.20;2329.60;;;;;;5112824;28;20059;-62
2021/10/07 10:51:12;;;;;;;16.83;6.95;;;384.30;2329.60;;;;;;5114586;28;20085;-62
2021/10/07 10:54:10;;;;;;;19.85;8.95;;;384.30;2329.60;;;;;;5112555;28;20051;-63
2021/10/07 10:56:42;;;;;;;18.65;8.82;;;384.30;2329.60;;;;;;5030588;28;20148;-62
2021/10/07 10:59:28;;;;;;;12.38;5.75;;;384.40;2329.60;;;;;;5031538;28;20582;-63
2021/10/07 11:02:15;;;;;;;10.07;5.47;;;384.50;2329.60;;;;;;5030949;28;20131;-63
2021/10/07 11:04:51;;;;;;;10.40;6.25;;;384.50;2329.60;;;;;;5031572;28;20116;-62
2021/10/07 11:07:17;;;;;;;11.90;7.40;;;384.50;2329.60;;;;;;5032048;28;20046;-63
2021/10/07 11:09:57;;;;;;;10.85;6.57;;;384.60;2329.60;;;;;;5031188;28;20139;-63
2021/10/07 11:12:24;;;;;;;10.60;6.68;;;384.60;2329.60;;;;;;5032301;28;20377;-62
2021/10/07 11:14:50;;;;;;;14.52;6.30;;;384.80;2329.60;;;;;;5031031;28;20041;-63
2021/10/07 11:17:18;;;;;;;12.13;6.20;;;384.80;2329.60;;;;;;5029966;28;20079;-62
2021/10/07 11:19:47;;;;;;;13.40;6.50;;;384.80;2329.60;;;;;;5027979;28;20045;-63
2021/10/07 11:22:13;;;;;;;13.52;6.30;;;384.80;2329.60;;;;;;5031397;28;20530;-63
2021/10/07 11:24:53;;;;;;;10.20;6.22;;;384.90;2329.60;;;;;;5029985;28;20037;-63
2021/10/07 11:27:38;;;;;;;14.23;6.35;;;409.60;2355.20;;;;;;5031295;28;20041;-63
2021/10/07 11:30:09;;;;;;;21.35;7.80;;;384.90;2329.60;;;;;;5031262;28;20420;-63
2021/10/07 11:32:35;;;;;;;16.77;8.30;;;409.60;2355.20;;;;;;5058632;28;20032;-64
2021/10/07 11:35:08;;;;;;;12.15;6.18;;;409.60;2355.20;;;;;;5114351;28;20506;-62
2021/10/07 11:37:45;;;;;;;11.10;6.22;;;409.60;2355.20;;;;;;5113812;28;20015;-64
2021/10/07 11:40:23;;;;;;;13.85;6.70;;;409.60;2355.20;;;;;;5113719;28;20044;-63
2021/10/07 11:42:49;;;;;;;11.10;6.70;;;409.70;2355.20;;;;;;5113847;28;20401;-64
2021/10/07 11:45:19;;;;;;;14.00;6.38;;;409.80;2355.20;;;;;;5113600;28;20036;-63
2021/10/07 11:47:44;;;;;;;9.50;6.25;;;409.90;2355.20;;;;;;5109467;28;20030;-63
2021/10/07 11:50:14;;;;;;;15.52;7.60;;;409.90;2355.20;;;;;;5112168;28;20028;-63
2021/10/07 11:52:40;;;;;;;14.88;6.93;;;409.90;2355.20;;;;;;5111300;28;20106;-63
2021/10/07 11:55:07;;;;;;;16.13;8.52;;;410.00;2355.20;;;;;;5111873;27;20126;-63
2021/10/07 11:57:32;;;;;;;21.02;9.70;;;410.00;2355.20;;;;;;5112001;28;20462;-63
2021/10/07 11:59:58;;;;;;;14.63;8.10;;;410.10;2355.20;;;;;;5112687;28;20036;-62
2021/10/07 12:02:24;;;;;;;16.75;8.77;;;410.00;2355.20;;;;;;5111749;28;20047;-62
2021/10/07 12:04:50;;;;;;;13.82;7.93;;;409.90;2355.20;;;;;;5111472;28;20051;-62
2021/10/07 12:07:16;;;;;;;15.20;9.07;;;409.90;2355.20;;;;;;5110773;28;20058;-63
2021/10/07 12:09:42;;;;;;;13.95;8.32;;;409.90;2355.20;;;;;;5111688;28;20030;-62
2021/10/07 12:12:08;;;;;;;13.77;7.93;;;409.90;2355.20;;;;;;5112500;28;20023;-63
2021/10/07 12:14:34;;;;;;;15.70;9.30;;;409.80;2355.20;;;;;;5111259;28;20118;-63
2021/10/07 12:17:00;;;;;;;12.48;8.70;;;409.80;2355.20;;;;;;5111496;28;20108;-63